createdAt,value
2019-02-18T00:01:00.147Z,8.58
2019-02-18T00:03:29.022Z,8.63
2019-02-18T00:05:57.827Z,10.43
2019-02-18T00:08:26.748Z,7.28
2019-02-18T00:10:55.551Z,10.05
2019-02-18T00:13:24.493Z,8.80
2019-02-18T00:15:53.354Z,9.03
2019-02-18T00:18:22.149Z,8.38
2019-02-18T00:20:51.005Z,9.15
2019-02-18T00:23:19.820Z,9.05
2019-02-18T00:25:48.609Z,8.63
2019-02-18T00:28:17.396Z,7.85
2019-02-18T00:30:46.187Z,9.73
2019-02-18T00:33:15.237Z,11.40
2019-02-18T00:35:44.029Z,10.55
2019-02-18T00:38:12.821Z,11.70
2019-02-18T00:40:42.180Z,10.40
2019-02-18T00:43:10.985Z,10.15
2019-02-18T00:45:40.013Z,10.15
2019-02-18T00:48:08.816Z,9.78
2019-02-18T00:50:37.608Z,9.03
2019-02-18T00:53:06.404Z,9.95
2019-02-18T00:55:35.202Z,10.55
2019-02-18T00:58:04.324Z,12.10
2019-02-18T01:00:33.365Z,11.30
2019-02-18T01:03:02.234Z,10.85
2019-02-18T01:05:31.171Z,10.50
2019-02-18T01:08:00.212Z,10.93
2019-02-18T01:10:29.205Z,9.80
2019-02-18T01:12:58.069Z,10.18
2019-02-18T01:15:26.930Z,9.80
2019-02-18T01:17:55.804Z,9.15
2019-02-18T01:20:24.597Z,8.50
2019-02-18T01:22:53.703Z,9.78
2019-02-18T01:25:22.737Z,9.25
2019-02-18T01:27:51.781Z,8.68
2019-02-18T01:30:20.637Z,8.83
2019-02-18T01:32:49.930Z,10.50
2019-02-18T01:35:18.793Z,9.40
2019-02-18T01:37:47.577Z,9.88
2019-02-18T01:40:16.454Z,9.10
2019-02-18T01:42:45.236Z,10.30
2019-02-18T01:45:14.990Z,8.28
2019-02-18T01:47:43.900Z,9.50
2019-02-18T01:50:14.101Z,9.80
2019-02-18T01:52:42.889Z,9.25
2019-02-18T01:55:12.490Z,8.40
2019-02-18T01:57:41.678Z,9.00
2019-02-18T02:00:13.329Z,8.18
2019-02-18T02:02:42.184Z,8.83
2019-02-18T02:05:12.573Z,9.35
2019-02-18T02:07:41.420Z,9.93
2019-02-18T02:10:11.778Z,9.10
2019-02-18T02:12:40.894Z,8.48
2019-02-18T02:15:15.736Z,10.48
2019-02-18T02:17:44.773Z,9.28
2019-02-18T02:20:13.825Z,8.90
2019-02-18T02:22:42.614Z,8.93
2019-02-18T02:25:11.583Z,9.03
2019-02-18T02:27:40.466Z,9.90
2019-02-18T02:30:09.519Z,8.18
2019-02-18T02:32:38.373Z,9.75
2019-02-18T02:35:07.565Z,9.33
2019-02-18T02:37:36.681Z,10.10
2019-02-18T02:40:06.157Z,9.50
2019-02-18T02:42:35.175Z,9.63
2019-02-18T02:45:04.061Z,9.50
2019-02-18T02:47:33.106Z,9.33
2019-02-18T02:50:02.496Z,8.75
2019-02-18T02:52:31.285Z,9.83
2019-02-18T02:55:00.333Z,9.60
2019-02-18T02:57:29.381Z,9.08
2019-02-18T02:59:58.185Z,9.08
2019-02-18T03:02:27.202Z,9.13
2019-02-18T03:04:56.242Z,8.85
2019-02-18T03:07:25.031Z,9.15
2019-02-18T03:09:53.838Z,9.55
2019-02-18T03:12:22.725Z,9.60
2019-02-18T03:14:51.574Z,10.38
2019-02-18T03:17:20.372Z,9.35
2019-02-18T03:19:49.244Z,10.68
2019-02-18T03:22:18.282Z,8.85
2019-02-18T03:25:15.057Z,9.10
2019-02-18T03:27:43.985Z,9.98
2019-02-18T03:30:35.470Z,8.88
2019-02-18T03:33:04.456Z,9.93
2019-02-18T03:35:33.604Z,8.93
2019-02-18T03:38:02.396Z,8.90
2019-02-18T03:40:31.273Z,9.23
2019-02-18T03:43:00.057Z,7.75
2019-02-18T03:45:29.137Z,10.15
2019-02-18T03:47:57.916Z,9.13
2019-02-18T03:50:26.704Z,9.35
2019-02-18T03:52:55.496Z,9.18
2019-02-18T03:55:24.758Z,8.60
2019-02-18T03:57:53.548Z,9.23
2019-02-18T04:00:22.421Z,9.38
2019-02-18T04:02:51.269Z,8.98
2019-02-18T04:05:20.397Z,9.13
2019-02-18T04:07:49.433Z,9.20
2019-02-18T04:10:18.315Z,9.93
2019-02-18T04:12:47.340Z,9.25
2019-02-18T04:15:16.153Z,9.70
2019-02-18T04:17:45.013Z,9.55
2019-02-18T04:20:14.038Z,9.35
2019-02-18T04:22:43.336Z,10.28
2019-02-18T04:25:12.186Z,9.73
2019-02-18T04:27:41.056Z,9.45
2019-02-18T04:30:10.136Z,9.05
2019-02-18T04:32:39.190Z,9.18
2019-02-18T04:35:08.185Z,9.40
2019-02-18T04:37:37.097Z,9.93
2019-02-18T04:40:06.232Z,9.60
2019-02-18T04:42:35.289Z,10.50
2019-02-18T04:45:04.333Z,8.40
2019-02-18T04:47:33.125Z,19.42
2019-02-18T04:50:01.925Z,23.85
2019-02-18T04:52:31.272Z,17.10
2019-02-18T04:55:00.313Z,16.65
2019-02-18T04:57:31.345Z,18.17
2019-02-18T04:59:59.625Z,14.95
2019-02-18T05:02:28.910Z,13.85
2019-02-18T05:04:57.694Z,14.98
2019-02-18T05:07:27.027Z,13.65
2019-02-18T05:09:56.420Z,14.07
2019-02-18T05:12:25.220Z,13.50
2019-02-18T05:14:54.267Z,13.68
2019-02-18T05:17:23.056Z,12.75
2019-02-18T05:19:51.870Z,12.75
2019-02-18T05:22:20.745Z,14.15
2019-02-18T05:24:49.543Z,13.18
2019-02-18T05:27:18.581Z,12.90
2019-02-18T05:29:47.855Z,13.50
2019-02-18T05:32:16.648Z,11.80
2019-02-18T05:34:45.685Z,12.03
2019-02-18T05:37:14.483Z,12.00
2019-02-18T05:39:43.276Z,10.10
2019-02-18T05:42:12.073Z,10.98
2019-02-18T05:44:40.856Z,11.08
2019-02-18T05:47:10.153Z,12.10
2019-02-18T05:49:38.949Z,10.05
2019-02-18T05:52:07.865Z,11.55
2019-02-18T05:54:36.806Z,10.78
2019-02-18T05:57:05.917Z,11.83
2019-02-18T05:59:34.945Z,10.10
2019-02-18T06:02:03.993Z,11.35
2019-02-18T06:04:32.789Z,11.50
2019-02-18T06:07:01.860Z,13.85
2019-02-18T06:09:30.919Z,16.90
2019-02-18T06:11:59.777Z,18.95
2019-02-18T06:14:30.354Z,15.23
2019-02-18T06:16:59.295Z,15.40
2019-02-18T06:19:28.518Z,18.45
2019-02-18T06:21:58.247Z,21.25
2019-02-18T06:24:27.075Z,18.10
2019-02-18T06:26:57.435Z,16.93
2019-02-18T06:29:27.216Z,14.83
2019-02-18T06:31:56.461Z,15.55
2019-02-18T06:34:25.639Z,13.78
2019-02-18T06:36:54.450Z,15.13
2019-02-18T06:39:23.254Z,14.13
2019-02-18T06:41:52.126Z,13.68
2019-02-18T06:44:27.539Z,12.85
2019-02-18T06:47:01.623Z,13.43
2019-02-18T06:49:31.225Z,13.05
2019-02-18T06:52:00.043Z,12.78
2019-02-18T06:54:28.949Z,12.82
2019-02-18T06:57:07.782Z,11.57
2019-02-18T06:59:46.620Z,13.22
2019-02-18T07:02:49.793Z,12.93
2019-02-18T07:05:42.900Z,11.28
2019-02-18T07:08:43.046Z,9.88
2019-02-18T07:11:22.152Z,10.98
2019-02-18T07:13:51.223Z,12.07
2019-02-18T07:16:20.033Z,8.00
2019-02-18T07:18:48.862Z,9.78
2019-02-18T07:21:17.730Z,8.25
2019-02-18T07:23:46.777Z,7.40
2019-02-18T07:26:15.843Z,8.35
2019-02-18T07:28:44.694Z,8.78
2019-02-18T07:31:13.565Z,8.03
2019-02-18T07:33:42.410Z,8.65
2019-02-18T07:36:11.550Z,8.13
2019-02-18T07:38:40.685Z,8.30
2019-02-18T07:41:09.729Z,9.58
2019-02-18T07:43:38.545Z,7.58
2019-02-18T07:46:07.688Z,8.30
2019-02-18T07:48:36.862Z,8.15
2019-02-18T07:51:05.730Z,8.53
2019-02-18T07:53:34.801Z,9.20
2019-02-18T07:56:03.913Z,9.10
2019-02-18T07:58:32.877Z,8.70
2019-02-18T08:01:01.824Z,8.65
2019-02-18T08:03:30.986Z,8.08
2019-02-18T08:05:59.785Z,8.13
2019-02-18T08:08:28.859Z,9.45
2019-02-18T08:10:57.744Z,8.70
2019-02-18T08:13:26.877Z,9.28
2019-02-18T08:15:56.338Z,8.95
2019-02-18T08:18:25.502Z,9.98
2019-02-18T08:20:54.787Z,8.00
2019-02-18T08:23:23.611Z,8.40
2019-02-18T08:25:52.405Z,8.80
2019-02-18T08:28:21.202Z,8.90
2019-02-18T08:30:49.992Z,8.40
2019-02-18T08:33:19.355Z,9.73
2019-02-18T08:35:48.163Z,8.18
2019-02-18T08:38:17.503Z,7.70
2019-02-18T08:40:46.836Z,9.50
2019-02-18T08:43:15.626Z,9.00
2019-02-18T08:45:44.763Z,9.00
2019-02-18T08:48:13.813Z,9.50
2019-02-18T08:50:42.613Z,8.15
2019-02-18T08:53:11.673Z,8.05
2019-02-18T08:55:40.491Z,9.03
2019-02-18T08:58:09.599Z,8.83
2019-02-18T09:00:38.477Z,8.40
2019-02-18T09:03:07.432Z,8.48
2019-02-18T09:05:36.367Z,8.88
2019-02-18T09:08:05.383Z,8.05
2019-02-18T09:10:34.595Z,8.68
2019-02-18T09:13:03.632Z,6.65
2019-02-18T09:15:32.779Z,7.03
2019-02-18T09:18:01.855Z,6.60
2019-02-18T09:20:31.437Z,6.17
2019-02-18T09:23:11.135Z,6.50
2019-02-18T09:25:44.447Z,7.03
2019-02-18T09:28:14.319Z,7.47
2019-02-18T09:30:46.349Z,7.23
2019-02-18T09:33:15.626Z,7.53
2019-02-18T09:35:45.291Z,7.00
2019-02-18T09:38:24.369Z,5.80
2019-02-18T09:40:50.467Z,6.53
2019-02-18T09:43:16.293Z,6.80
2019-02-18T09:45:45.495Z,7.57
2019-02-18T09:48:14.699Z,6.80
2019-02-18T09:50:44.059Z,7.10
2019-02-18T09:53:13.499Z,6.90
2019-02-18T09:55:42.978Z,6.83
2019-02-18T09:58:11.941Z,7.30
2019-02-18T10:00:41.136Z,6.90
2019-02-18T10:03:10.550Z,6.80
2019-02-18T10:05:39.601Z,6.83
2019-02-18T10:08:08.736Z,6.60
2019-02-18T10:10:38.142Z,7.00
2019-02-18T10:13:07.592Z,6.67
2019-02-18T10:15:36.806Z,6.90
2019-02-18T10:18:06.151Z,6.40
2019-02-18T10:20:35.431Z,6.60
2019-02-18T10:23:04.661Z,7.03
2019-02-18T10:25:34.172Z,6.60
2019-02-18T10:28:03.696Z,7.03
2019-02-18T10:30:32.970Z,6.40
2019-02-18T10:33:02.552Z,5.93
2019-02-18T10:35:31.972Z,5.80
2019-02-18T10:38:01.930Z,6.50
2019-02-18T10:40:31.140Z,5.70
2019-02-18T10:43:00.601Z,6.90
2019-02-18T10:45:29.979Z,6.37
2019-02-18T10:47:59.360Z,7.70
2019-02-18T10:50:28.374Z,8.10
2019-02-18T10:52:57.717Z,8.17
2019-02-18T10:55:27.046Z,6.37
2019-02-18T10:57:56.056Z,7.17
2019-02-18T11:00:25.292Z,7.60
2019-02-18T11:02:54.939Z,7.13
2019-02-18T11:05:23.914Z,7.20
2019-02-18T11:07:53.016Z,7.27
2019-02-18T11:10:22.066Z,7.80
2019-02-18T11:12:51.062Z,7.17
2019-02-18T11:15:20.112Z,6.60
2019-02-18T11:17:49.235Z,7.10
2019-02-18T11:20:18.687Z,6.80
2019-02-18T11:22:47.716Z,7.10
2019-02-18T11:25:16.769Z,6.27
2019-02-18T11:27:45.661Z,7.10
2019-02-18T11:30:14.825Z,6.50
2019-02-18T11:32:44.117Z,6.97
2019-02-18T11:35:13.529Z,6.90
2019-02-18T11:37:42.631Z,6.80
2019-02-18T11:40:13.317Z,6.63
2019-02-18T11:42:42.393Z,6.03
2019-02-18T11:45:12.928Z,6.33
2019-02-18T11:47:41.910Z,6.73
2019-02-18T11:50:11.654Z,6.40
2019-02-18T11:52:42.553Z,6.70
2019-02-18T11:55:11.804Z,6.63
2019-02-18T11:57:41.418Z,6.40
2019-02-18T12:00:11.657Z,6.63
2019-02-18T12:02:40.544Z,6.33
2019-02-18T12:05:12.441Z,5.80
2019-02-18T12:07:41.548Z,6.27
2019-02-18T12:10:10.505Z,5.23
2019-02-18T12:12:39.938Z,6.63
2019-02-18T12:15:09.869Z,4.90
2019-02-18T12:17:38.739Z,5.40
2019-02-18T12:20:09.974Z,5.17
2019-02-18T12:22:38.942Z,5.87
2019-02-18T12:25:07.990Z,5.70
2019-02-18T12:27:37.109Z,5.50
2019-02-18T12:30:06.954Z,5.60
2019-02-18T12:32:35.921Z,4.97
2019-02-18T12:35:05.063Z,8.43
2019-02-18T12:37:34.261Z,5.43
2019-02-18T12:40:03.154Z,5.57
2019-02-18T12:42:32.110Z,5.50
2019-02-18T12:45:00.993Z,5.87
2019-02-18T12:47:29.894Z,5.20
2019-02-18T12:50:00.378Z,6.10
2019-02-18T12:52:32.705Z,5.47
2019-02-18T12:55:02.015Z,5.13
2019-02-18T12:57:30.951Z,5.33
2019-02-18T13:00:00.734Z,6.23
2019-02-18T13:02:31.602Z,5.47
2019-02-18T13:05:00.411Z,5.77
2019-02-18T13:07:34.984Z,4.83
2019-02-18T13:10:05.476Z,4.83
2019-02-18T13:12:34.417Z,4.50
2019-02-18T13:15:03.994Z,4.83
2019-02-18T13:17:33.142Z,4.70
2019-02-18T13:20:02.030Z,5.33
2019-02-18T13:22:30.852Z,4.90
2019-02-18T13:25:00.032Z,5.47
2019-02-18T13:27:29.217Z,6.10
2019-02-18T13:29:58.384Z,5.70
2019-02-18T13:32:27.809Z,4.30
2019-02-18T13:34:56.895Z,4.50
2019-02-18T13:37:25.811Z,4.90
2019-02-18T13:39:54.798Z,4.97
2019-02-18T13:42:23.753Z,4.30
2019-02-18T13:44:52.855Z,5.07
2019-02-18T13:47:22.246Z,4.90
2019-02-18T13:49:51.243Z,4.80
2019-02-18T13:52:20.488Z,5.53
2019-02-18T13:54:49.650Z,4.90
2019-02-18T13:57:18.451Z,4.90
2019-02-18T13:59:47.297Z,4.90
2019-02-18T14:02:16.592Z,4.47
2019-02-18T14:04:45.458Z,4.10
2019-02-18T14:07:14.857Z,4.83
2019-02-18T14:09:44.181Z,5.20
2019-02-18T14:12:16.080Z,4.87
2019-02-18T14:14:44.054Z,4.90
2019-02-18T14:17:13.340Z,4.17
2019-02-18T14:19:43.083Z,4.23
2019-02-18T14:22:13.027Z,4.37
2019-02-18T14:24:41.962Z,4.80
2019-02-18T14:27:11.093Z,4.30
2019-02-18T14:29:39.898Z,4.57
2019-02-18T14:32:09.331Z,4.40
2019-02-18T14:34:38.138Z,4.40
2019-02-18T14:37:07.069Z,3.90
2019-02-18T14:39:35.889Z,3.57
2019-02-18T14:42:04.780Z,4.17
2019-02-18T14:44:33.953Z,4.00
2019-02-18T14:47:02.926Z,3.80
2019-02-18T14:49:31.792Z,4.23
2019-02-18T14:52:00.741Z,3.90
2019-02-18T14:54:29.880Z,3.30
2019-02-18T14:56:58.669Z,4.00
2019-02-18T14:59:27.462Z,4.20
2019-02-18T15:01:56.813Z,3.47
2019-02-18T15:04:25.617Z,3.63
2019-02-18T15:06:54.470Z,2.97
2019-02-18T15:09:23.285Z,3.73
2019-02-18T15:11:52.145Z,3.20
2019-02-18T15:14:21.265Z,3.33
2019-02-18T15:16:50.137Z,3.87
2019-02-18T15:19:19.269Z,4.20
2019-02-18T15:21:48.607Z,3.60
2019-02-18T15:24:17.475Z,3.63
2019-02-18T15:26:46.416Z,3.17
2019-02-18T15:29:15.717Z,6.33
2019-02-18T15:32:04.310Z,3.50
2019-02-18T15:34:33.185Z,4.20
2019-02-18T15:37:02.308Z,3.37
2019-02-18T15:39:31.122Z,3.00
2019-02-18T15:41:59.956Z,2.97
2019-02-18T15:44:29.542Z,3.17
2019-02-18T15:46:58.498Z,2.93
2019-02-18T15:49:27.361Z,3.63
2019-02-18T15:51:56.411Z,3.77
2019-02-18T15:54:25.533Z,3.10
2019-02-18T15:56:54.688Z,3.43
2019-02-18T15:59:24.001Z,3.00
2019-02-18T16:01:53.054Z,3.30
2019-02-18T16:04:21.904Z,2.60
2019-02-18T16:06:50.945Z,3.70
2019-02-18T16:09:19.829Z,3.47
2019-02-18T16:11:48.693Z,2.50
2019-02-18T16:14:17.957Z,3.43
2019-02-18T16:16:46.777Z,3.17
2019-02-18T16:19:15.565Z,3.43
2019-02-18T16:21:44.356Z,2.70
2019-02-18T16:24:19.975Z,4.10
2019-02-18T16:26:43.889Z,3.00
2019-02-18T16:29:13.509Z,3.00
2019-02-18T16:31:42.401Z,3.63
2019-02-18T16:34:11.462Z,4.10
2019-02-18T16:36:40.270Z,4.37
2019-02-18T16:39:09.727Z,3.57
2019-02-18T16:41:38.544Z,3.00
2019-02-18T16:44:07.357Z,3.30
2019-02-18T16:46:36.465Z,3.23
2019-02-18T16:49:05.622Z,4.90
2019-02-18T16:51:34.664Z,5.63
2019-02-18T16:54:03.439Z,4.77
2019-02-18T16:56:32.505Z,4.67
2019-02-18T16:59:01.679Z,5.27
2019-02-18T17:01:30.512Z,5.17
2019-02-18T17:03:59.376Z,6.50
2019-02-18T17:06:28.177Z,8.10
2019-02-18T17:08:56.982Z,6.10
2019-02-18T17:11:25.784Z,6.50
2019-02-18T17:13:55.385Z,7.80
2019-02-18T17:16:24.292Z,6.40
2019-02-18T17:18:53.214Z,7.07
2019-02-18T17:21:22.080Z,7.73
2019-02-18T17:23:50.877Z,7.93
2019-02-18T17:26:20.262Z,6.40
2019-02-18T17:28:49.053Z,6.93
2019-02-18T17:31:17.864Z,6.43
2019-02-18T17:33:47.949Z,7.00
2019-02-18T17:36:16.805Z,7.80
2019-02-18T17:38:45.855Z,7.83
2019-02-18T17:41:14.677Z,11.27
2019-02-18T17:43:43.481Z,10.60
2019-02-18T17:46:12.637Z,10.13
2019-02-18T17:48:41.442Z,10.53
2019-02-18T17:51:10.603Z,9.57
2019-02-18T17:53:40.336Z,25.32
2019-02-18T17:56:09.978Z,19.57
2019-02-18T17:58:40.324Z,15.30
2019-02-18T18:01:09.647Z,8.65
2019-02-18T18:03:38.459Z,7.87
2019-02-18T18:06:07.693Z,18.00
2019-02-18T18:08:36.550Z,9.67
2019-02-18T18:11:05.852Z,11.30
2019-02-18T18:13:36.085Z,17.02
2019-02-18T18:16:06.009Z,15.90
2019-02-18T18:18:34.905Z,9.83
2019-02-18T18:21:03.792Z,10.03
2019-02-18T18:23:32.581Z,9.30
2019-02-18T18:26:01.717Z,9.98
2019-02-18T18:28:30.800Z,11.75
2019-02-18T18:30:59.874Z,10.43
2019-02-18T18:33:28.935Z,11.90
2019-02-18T18:35:58.126Z,12.20
2019-02-18T18:38:27.358Z,7.53
2019-02-18T18:40:56.180Z,8.10
2019-02-18T18:43:33.422Z,8.60
2019-02-18T18:45:55.785Z,10.05
2019-02-18T18:48:24.766Z,16.40
2019-02-18T18:50:57.377Z,8.95
2019-02-18T18:53:26.909Z,8.00
2019-02-18T18:55:57.677Z,6.72
2019-02-18T18:58:29.180Z,5.85
2019-02-18T19:00:59.012Z,5.17
2019-02-18T19:03:28.363Z,5.83
2019-02-18T19:05:57.592Z,7.05
2019-02-18T19:08:30.956Z,6.97
2019-02-18T19:11:01.233Z,5.10
2019-02-18T19:13:30.700Z,5.40
2019-02-18T19:16:00.518Z,7.05
2019-02-18T19:18:31.019Z,7.40
2019-02-18T19:21:01.297Z,6.95
2019-02-18T19:23:30.480Z,9.10
2019-02-18T19:25:59.690Z,8.50
2019-02-18T19:28:29.007Z,8.13
2019-02-18T19:30:57.798Z,7.90
2019-02-18T19:33:26.853Z,6.20
2019-02-18T19:35:55.677Z,6.47
2019-02-18T19:38:24.486Z,6.30
2019-02-18T19:40:54.060Z,6.55
2019-02-18T19:43:22.884Z,5.95
2019-02-18T19:45:51.711Z,6.35
2019-02-18T19:48:20.837Z,5.22
2019-02-18T19:50:49.638Z,5.60
2019-02-18T19:53:18.445Z,6.45
2019-02-18T19:55:47.237Z,6.60
2019-02-18T19:58:16.092Z,6.30
2019-02-18T20:00:45.054Z,5.60
2019-02-18T20:03:14.061Z,7.20
2019-02-18T20:05:43.308Z,6.10
2019-02-18T20:08:16.567Z,6.25
2019-02-18T20:10:49.778Z,9.18
2019-02-18T20:16:00.861Z,7.85
2019-02-18T20:18:29.785Z,10.72
2019-02-18T20:20:58.607Z,10.05
2019-02-18T20:23:27.869Z,10.23
2019-02-18T20:25:57.014Z,11.00
2019-02-18T20:28:25.833Z,9.30
2019-02-18T20:30:55.182Z,8.20
2019-02-18T20:33:23.976Z,10.28
2019-02-18T20:35:53.079Z,9.43
2019-02-18T20:38:22.248Z,9.45
2019-02-18T20:40:51.529Z,9.45
2019-02-18T20:43:20.315Z,11.22
2019-02-18T20:45:49.968Z,10.60
2019-02-18T20:48:18.828Z,9.78
2019-02-18T20:50:47.654Z,10.55
2019-02-18T20:53:16.467Z,8.60
2019-02-18T20:55:45.284Z,10.40
2019-02-18T20:58:14.349Z,9.28
2019-02-18T21:00:43.266Z,9.40
2019-02-18T21:03:12.425Z,11.05
2019-02-18T21:05:41.469Z,9.85
2019-02-18T21:08:10.338Z,9.40
2019-02-18T21:10:39.299Z,9.80
2019-02-18T21:13:08.394Z,9.10
2019-02-18T21:15:37.590Z,9.93
2019-02-18T21:18:06.520Z,10.30
2019-02-18T21:20:35.405Z,10.68
2019-02-18T21:23:04.519Z,9.70
2019-02-18T21:25:33.390Z,11.57
2019-02-18T21:28:02.458Z,9.83
2019-02-18T21:30:31.273Z,10.70
2019-02-18T21:33:00.086Z,10.85
2019-02-18T21:35:31.526Z,12.55
2019-02-18T21:38:00.337Z,11.48
2019-02-18T21:40:29.286Z,11.10
2019-02-18T21:42:58.204Z,10.50
2019-02-18T21:45:27.491Z,11.83
2019-02-18T21:47:56.761Z,11.80
2019-02-18T21:50:28.469Z,9.95
2019-02-18T21:52:57.330Z,9.95
2019-02-18T21:55:26.416Z,8.85
2019-02-18T21:57:55.201Z,8.55
2019-02-18T22:00:24.589Z,8.33
2019-02-18T22:02:53.761Z,7.83
2019-02-18T22:05:22.617Z,8.03
2019-02-18T22:07:51.401Z,7.47
2019-02-18T22:10:20.510Z,8.58
2019-02-18T22:12:49.296Z,9.80
2019-02-18T22:15:18.496Z,9.98
2019-02-18T22:17:47.356Z,9.00
2019-02-18T22:20:16.853Z,8.55
2019-02-18T22:22:45.968Z,8.03
2019-02-18T22:25:14.757Z,9.65
2019-02-18T22:27:43.889Z,8.68
2019-02-18T22:30:13.304Z,9.08
2019-02-18T22:32:42.181Z,8.70
2019-02-18T22:35:11.109Z,9.33
2019-02-18T22:37:39.981Z,8.38
2019-02-18T22:40:08.979Z,8.70
2019-02-18T22:42:37.840Z,9.15
2019-02-18T22:45:06.900Z,9.23
2019-02-18T22:47:35.684Z,9.70
2019-02-18T22:50:04.648Z,9.98
2019-02-18T22:52:33.901Z,9.93
2019-02-18T22:55:02.684Z,9.05
2019-02-18T22:57:31.561Z,10.40
2019-02-18T23:00:00.422Z,10.03
2019-02-18T23:02:29.608Z,9.50
2019-02-18T23:04:58.473Z,9.23
2019-02-18T23:07:27.533Z,8.00
2019-02-18T23:09:56.657Z,8.43
2019-02-18T23:12:25.449Z,9.05
2019-02-18T23:14:54.590Z,9.48
2019-02-18T23:17:23.441Z,9.30
2019-02-18T23:19:52.237Z,8.63
2019-02-18T23:22:21.100Z,8.40
2019-02-18T23:24:50.361Z,8.93
2019-02-18T23:27:19.169Z,8.80
2019-02-18T23:29:47.952Z,8.93
2019-02-18T23:32:16.762Z,8.83
2019-02-18T23:34:45.806Z,9.70
2019-02-18T23:37:14.600Z,8.68
2019-02-18T23:39:43.385Z,8.60
2019-02-18T23:42:12.273Z,9.30
2019-02-18T23:44:41.081Z,8.60
2019-02-18T23:47:09.877Z,9.48
2019-02-18T23:49:38.669Z,9.90
2019-02-18T23:52:07.489Z,9.20
2019-02-18T23:54:36.284Z,8.20
2019-02-18T23:57:05.170Z,9.55
2019-02-18T23:59:33.978Z,9.70
